• Join FlightAware (Why Join?)
  • Login
  • US Flag 
11:09PM EDT


 

Airport Tracker/Info


-or-


 

Live Flight TrackerFlight Track Log ✈ AWE3418 ✈ 13-May-2013 ✈ KCMH - KPHL

Flight Track Log - Related Links

Times and Time Zones

All times are in EDT time to prevent confusion due to time zone crossing. See the AWE3418 flight status page for this flight to view local times or setup timezone preferences in your user account.

Time Position Orientation Groundspeed Altitude Reporting Facility
EDT Latitude Longitude Course Direction KTS MPH feet Rate Location/Type
04:07PM 40.0017 -82.9211 81° East 159 183 1,900  Level Indianapolis Center
04:07PM 40.0025 -82.9400 273° West 147 169 2,700 1,380 Climbing Indianapolis Center
04:08PM 40.0011 -82.9831 268° West 184 212 3,500 1,860 Climbing Indianapolis Center
04:08PM 39.9817 -83.0031 218° Southwest 237 273 4,600 3,480 Climbing Indianapolis Center
04:09PM 39.9386 -83.0106 188° South 240 276 7,100 3,120 Climbing Indianapolis Center
04:10PM 40.0516 -82.3564 79° East  Level FlightAware Approximate
04:10PM 39.8883 -82.9528 139° Southeast 267 307 10,200  Level Indianapolis Center
04:11PM 40.0719 -82.2247 79° East  Level FlightAware Approximate
04:11PM 39.8808 -82.8378 95° East 315 362 12,600  Level Indianapolis Center
04:12PM 40.0905 -82.0927 81° East  Level FlightAware Approximate
04:12PM 39.8742 -82.6939 93° East 342 394 14,700  Level Indianapolis Center
04:13PM 39.8986 -82.5686 76° East 355 409 17,000 2,040 Climbing Indianapolis Center
04:14PM 39.9228 -82.4394 76° East 364 419 19,000 1,980 Climbing Indianapolis Center
04:15PM 39.9475 -82.3086 76° East 369 425 21,100 1,980 Climbing Indianapolis Center
04:16PM 39.9725 -82.1761 76° East 373 429 23,100 1,980 Climbing Indianapolis Center
04:17PM 39.9972 -82.0414 76° East 378 435 25,200 1,860 Climbing Indianapolis Center
04:19PM 40.0219 -81.9047 77° East 383 441 27,000 1,740 Climbing Indianapolis Center
04:20PM 40.0486 -81.7608 76° East 392 451 28,800 960 Climbing Indianapolis Center
04:21PM 40.0778 -81.5997 77° East 390 449 29,000 60 Climbing Indianapolis Center
04:22PM 40.1028 -81.4617 77° East 389 448 29,000  Level Indianapolis Center
04:23PM 40.1294 -81.3244 76° East 393 452 29,000  Level Cleveland Center
04:24PM 40.1531 -81.1861 77° East 393 452 29,000  Level Cleveland Center
04:25PM 40.1767 -81.0503 77° East 393 452 29,000  Level Cleveland Center
04:26PM 40.2022 -80.9175 76° East 382 440 29,000  Level Cleveland Center
04:27PM 40.2256 -80.7789 78° East 382 440 29,000  Level Cleveland Center
04:28PM 40.2506 -80.6431 76° East 382 440 29,000  Level Cleveland Center
04:29PM 40.2653 -80.5042 82° East 382 440 29,000  Level Cleveland Center
04:30PM 40.2714 -80.3628 87° East 382 440 29,000  Level Cleveland Center
04:31PM 40.2750 -80.2103 88° East 381 438 29,000  Level Cleveland Center
04:32PM 40.2786 -80.0661 88° East 381 438 29,000  Level Cleveland Center
04:33PM 40.2861 -79.9217 86° East 381 438 29,000  Level Cleveland Center
04:34PM 40.3103 -79.7853 77° East 386 444 29,000  Level Cleveland Center
04:35PM 40.3469 -79.6569 69° East 375 432 29,000  Level Cleveland Center
04:36PM 40.3875 -79.5283 67° East 375 432 29,000  Level Cleveland Center
04:37PM 40.4300 -79.3994 67° East 375 432 29,000  Level Cleveland Center
04:38PM 40.4664 -79.2867 67° East 375 432 29,000 -120 Level Cleveland Center
04:39PM 40.5086 -79.1575 67° East 375 432 28,800 -540 Descending Cleveland Center
04:40PM 40.5233 -79.0208 82° East 375 432 28,000 -900 Descending Cleveland Center
04:41PM 40.4592 -78.9022 125° Southeast 358 412 27,100 -900 Descending Cleveland Center
04:42PM 40.3825 -78.8006 135° Southeast 364 419 26,300 -900 Descending Cleveland Center
04:43PM 40.3142 -78.6989 131° Southeast 377 434 25,400 -660 Descending Cleveland Center
04:44PM 40.2975 -78.5686 99° East 357 411 25,000 -240 Descending Cleveland Center
04:45PM 40.3011 -78.4325 88° East 357 411 25,000  Level Cleveland Center
04:47PM 40.2975 -78.1194 91° East 360 414 25,000  Level New York Center
04:48PM 40.2828 -77.9844 98° East 365 420 25,000  Level New York Center
04:49PM 40.2703 -77.8497 97° East 370 426 25,000  Level New York Center
04:50PM 40.2592 -77.7181 96° East 370 426 25,000  Level New York Center
04:51PM 40.2481 -77.5864 96° East 370 426 25,000 -600 Level New York Center
04:52PM 40.2369 -77.4519 96° East 370 426 23,800 -1,680 Descending New York Center
04:53PM 40.2236 -77.3203 98° East 370 426 21,800 -1,980 Descending New York Center
04:54PM 40.2117 -77.1967 97° East 359 413 19,900 -1,920 Descending New York Center
04:55PM 40.2000 -77.0625 96° East 340 391 18,000 -960 Descending New York Center
04:56PM 40.1900 -76.9364 96° East 335 386 18,000  Level New York Center
04:57PM 40.1808 -76.8297 96° East 335 386 18,000  Level New York Center
04:58PM 40.1686 -76.7036 97° East 335 386 18,000  Level New York Center
04:59PM 40.1583 -76.5722 96° East 335 386 18,000  Level New York Center
05:00PM 40.1492 -76.4631 96° East 335 386 18,000 -900 Level New York Center
05:01PM 40.1369 -76.3261 97° East 335 386 16,300 -1,740 Descending New York Center
05:02PM 40.1239 -76.2056 98° East 335 386 14,500 -1,680 Descending New York Center
05:03PM 40.1142 -76.0989 97° East 330 380 12,900 -1,740 Descending New York Center
05:04PM 40.1008 -75.9758 98° East 318 366 11,100 -1,680 Descending New York Center
05:05PM 40.0931 -75.8694 95° East 308 354 9,600 -1,620 Descending New York Center
05:06PM 40.0831 -75.7600 97° East 303 349 7,900 -1,620 Descending New York Center
05:07PM 40.0769 -75.6567 94° East 292 336 6,400 -960 Descending New York Center
05:08PM 40.0708 -75.5531 94° East 292 336 6,000 -240 Descending New York Center
05:09PM 40.0664 -75.4525 93° East 285 328 6,000  Level New York Center
05:10PM 40.0622 -75.3517 93° East 280 322 6,000  Level New York Center
05:11PM 40.0553 -75.2564 95° East 268 308 6,000  Level New York Center
05:12PM 40.0203 -75.1917 125° Southeast 218 251 6,000  Level New York Center
05:13PM 39.9803 -75.1431 137° Southeast 223 257 6,000 -120 Level New York Center
05:14PM 39.9936 -75.0656 77° East 187 215 5,800 -360 Descending New York Center
05:15PM 40.0061 -75.0067 74° East 181 208 5,300 -420 Descending New York Center
05:16PM 40.0236 -74.9317 73° East 181 208 5,000 -420 Descending New York Center
05:17PM 40.0064 -74.8847 116° Southeast 147 169 4,500 -1,020 Descending New York Center
05:17PM 39.9833 -74.8833 177° South 183 211 3,800 -1,320 Descending Philadelphia TRACON
05:18PM 39.9667 -74.9167 237° Southwest 168 193 3,000 -420 Descending Philadelphia TRACON
05:19PM 39.9333 -74.9667 229° Southwest 163 188 3,000  Level Philadelphia TRACON
05:20PM 39.9167 -75.0333 252° West 160 184 3,000 -360 Level Philadelphia TRACON
05:21PM 39.9000 -75.0833 247° West 159 183 2,300 -720 Descending Philadelphia TRACON